Time;durP1;ratioP1;P1;durP2;ratioP2;P2;SDS_P1;SDS_P2;PMS_P1;PMS_P2;Temp;Humidity;BMP_temperature;BMP_pressure;BME280_temperature;BME280_humidity;BME280_pressure;Samples;Min_cycle;Max_cycle;Signal;HPM_P1;HPM_P2
2023/01/06 00:01:18;;;;;;;1.77;1.40;;;12.90;95.20;;;13.12;61.61;99316.63;4983491;28;124180;-73
2023/01/06 00:03:54;;;;;;;1.83;1.17;;;12.70;95.20;;;13.13;61.92;99301.59;4970906;28;123801;-71
2023/01/06 00:06:26;;;;;;;2.03;1.13;;;12.70;95.20;;;13.13;61.73;99296.06;4955269;28;114454;-74
2023/01/06 00:09:01;;;;;;;1.40;1.23;;;12.80;95.20;;;13.15;61.74;99299.34;4960997;28;114001;-86
2023/01/06 00:11:29;;;;;;;1.37;1.17;;;11.30;94.60;;;13.14;61.86;99299.66;4962128;28;124399;-74
2023/01/06 00:13:56;;;;;;;1.40;1.20;;;12.70;95.10;;;13.17;61.86;99299.03;4970433;28;123964;-74
2023/01/06 00:16:23;;;;;;;1.80;1.20;;;12.80;95.20;;;13.19;61.74;99302.28;4973153;28;113984;-73
2023/01/06 00:18:54;;;;;;;2.40;1.03;;;12.80;95.20;;;13.17;61.66;99294.28;4969826;28;114089;-73
2023/01/06 00:21:22;;;;;;;1.60;1.50;;;12.80;95.20;;;13.19;61.89;99293.97;4969165;28;124072;-73
2023/01/06 00:23:48;;;;;;;1.30;1.10;;;12.80;95.20;;;13.19;61.71;99292.03;4970826;28;123512;-73
2023/01/06 00:26:15;;;;;;;3.50;1.10;;;12.80;95.40;;;13.22;61.58;99288.63;4968676;28;114061;-74
2023/01/06 00:28:42;;;;;;;1.73;1.33;;;12.80;95.20;;;13.24;61.78;99291.91;4969194;28;113857;-73
2023/01/06 00:31:12;;;;;;;2.50;0.97;;;12.80;95.10;;;13.28;61.98;99291.28;4964274;28;124040;-73
2023/01/06 00:33:39;;;;;;;1.63;1.20;;;12.80;95.10;;;13.31;61.52;99290.66;4980552;28;123640;-73
2023/01/06 00:36:08;;;;;;;1.57;1.20;;;12.90;95.10;;;13.32;61.57;99287.53;4962987;28;115073;-73
2023/01/06 00:38:36;;;;;;;2.03;1.20;;;12.90;95.10;;;13.34;61.52;99282.50;4969959;28;114983;-74
2023/01/06 00:43:58;;;;;;;1.40;1.20;;;12.90;95.10;;;13.37;61.34;99279.06;4983628;28;124265;-74
2023/01/06 00:46:27;;;;;;;2.00;1.23;;;13.00;95.10;;;13.40;61.52;99269.28;4967465;28;114120;-74
2023/01/06 00:48:58;;;;;;;1.30;1.03;;;13.00;95.10;;;13.42;61.32;99278.94;4952481;28;114021;-74
2023/01/06 00:51:24;;;;;;;1.50;1.00;;;13.00;95.10;;;13.42;61.41;99276.16;4962155;28;123775;-74
2023/01/06 00:53:51;;;;;;;1.40;1.00;;;13.00;95.10;;;13.44;61.27;99281.41;4971517;28;123733;-75
2023/01/06 00:56:18;;;;;;;2.30;1.13;;;13.00;95.00;;;13.45;61.25;99275.53;4953789;28;114781;-75
2023/01/06 00:58:47;;;;;;;2.47;1.50;;;13.00;95.00;;;13.45;61.50;99280.25;4954833;28;113300;-74
2023/01/06 01:01:16;;;;;;;1.80;1.20;;;13.00;95.10;;;13.47;61.09;99278.00;4966507;28;124292;-74
2023/01/06 01:03:42;;;;;;;1.10;1.00;;;13.00;95.00;;;13.48;61.13;99282.38;4966348;28;124162;-74
2023/01/06 01:06:09;;;;;;;1.33;1.17;;;13.60;95.20;;;13.50;61.09;99280.13;4967264;28;114219;-74
2023/01/06 01:08:37;;;;;;;3.67;1.20;;;13.00;94.90;;;13.48;60.97;99280.44;4963507;28;113834;-73
2023/01/06 01:12:08;;;;;;;1.20;1.07;;;13.10;95.00;;;13.48;61.00;99280.44;4971265;28;124320;-72
2023/01/06 01:13:57;;;;;;;2.17;1.17;;;13.00;94.90;;;13.47;60.91;99276.03;4970508;28;123778;-73
2023/01/06 01:16:24;;;;;;;1.77;0.90;;;13.10;94.90;;;13.50;60.93;99269.00;5001137;28;114072;-74
2023/01/06 01:18:50;;;;;;;1.50;1.40;;;13.10;94.90;;;13.52;61.02;99269.53;4970030;28;113512;-73
2023/01/06 01:21:17;;;;;;;2.00;1.10;;;13.10;94.90;;;13.54;60.88;99258.91;4968046;28;124516;-75
2023/01/06 01:23:43;;;;;;;1.97;1.30;;;13.10;94.90;;;13.55;60.86;99263.31;4971176;28;121590;-73
2023/01/06 01:26:10;;;;;;;1.60;1.20;;;13.10;94.90;;;13.57;60.88;99265.78;4968788;28;115282;-74
2023/01/06 01:28:36;;;;;;;1.50;1.17;;;13.10;94.90;;;13.57;60.68;99261.06;4970581;28;114019;-76
2023/01/06 01:31:03;;;;;;;3.20;1.40;;;13.20;94.90;;;13.57;60.75;99261.06;4969061;28;123972;-74
2023/01/06 01:33:30;;;;;;;3.10;1.27;;;13.10;94.80;;;13.60;60.76;99259.59;4971676;28;124351;-73
2023/01/06 01:35:57;;;;;;;2.47;1.40;;;13.10;94.80;;;13.60;60.63;99259.59;4968677;28;114359;-76
2023/01/06 01:38:27;;;;;;;1.67;1.30;;;13.10;94.80;;;13.57;60.62;99265.78;4970661;28;114287;-74
2023/01/06 01:40:53;;;;;;;1.53;1.23;;;13.10;94.70;;;13.55;60.52;99263.31;4967949;28;124075;-73
2023/01/06 01:43:20;;;;;;;1.67;1.13;;;13.10;94.70;;;13.54;60.56;99261.69;4965625;28;122064;-73
2023/01/06 01:45:52;;;;;;;1.33;1.10;;;13.20;94.80;;;13.52;60.43;99255.63;4957863;28;114159;-74
2023/01/06 01:48:33;;;;;;;2.07;1.77;;;13.10;94.80;;;13.52;60.83;99254.81;4968526;28;114062;-75
2023/01/06 01:51:04;;;;;;;5.30;2.93;;;13.10;94.90;;;13.53;61.41;99251.72;4960666;28;124566;-75
2023/01/06 01:53:39;;;;;;;2.57;1.80;;;13.10;95.10;;;13.55;61.40;99251.41;4970983;28;124270;-74
2023/01/06 01:56:09;;;;;;;2.00;1.50;;;13.10;95.20;;;13.55;61.32;99255.00;4969515;28;114514;-74
2023/01/06 01:59:02;;;;;;;3.33;1.60;;;13.10;95.10;;;13.56;61.08;99248.28;5003255;28;112746;-74
2023/01/06 02:01:29;;;;;;;1.50;1.40;;;13.10;95.10;;;13.56;61.29;99253.84;4968077;28;123204;-73
2023/01/06 02:03:55;;;;;;;2.13;1.30;;;13.20;95.10;;;13.57;60.87;99249.13;4950733;28;123229;-73
2023/01/06 02:06:24;;;;;;;2.10;1.30;;;13.10;94.90;;;13.54;60.76;99250.59;4967000;28;114367;-74
2023/01/06 02:09:10;;;;;;;1.30;1.20;;;13.10;94.90;;;13.55;60.83;99251.41;4968526;28;113948;-73
2023/01/06 02:11:37;;;;;;;2.37;1.27;;;13.10;94.80;;;13.55;60.83;99246.66;4968189;28;124277;-73
2023/01/06 02:14:11;;;;;;;2.07;1.37;;;13.10;94.90;;;13.56;60.64;99253.84;4970196;28;124269;-76
2023/01/06 02:17:24;;;;;;;3.27;1.53;;;13.10;94.80;;;13.50;60.69;99252.34;4968237;28;115300;-74
2023/01/06 02:20:28;;;;;;;2.40;1.20;;;13.10;94.80;;;13.44;60.66;99248.09;4961702;28;115268;-74
2023/01/06 02:23:19;;;;;;;1.87;1.10;;;13.00;94.80;;;13.41;60.74;99241.22;4964077;28;123778;-75
2023/01/06 02:26:21;;;;;;;1.40;1.00;;;13.00;94.80;;;13.38;60.84;99241.03;4969195;28;124523;-74
2023/01/06 02:29:22;;;;;;;1.63;1.43;;;13.00;94.80;;;13.36;60.93;99237.78;4955404;28;114278;-74
2023/01/06 02:32:20;;;;;;;1.60;1.20;;;13.00;94.80;;;13.38;60.79;99238.25;4969612;28;113564;-75
2023/01/06 02:35:15;;;;;;;1.40;1.20;;;13.00;94.80;;;13.40;60.82;99238.75;4961801;28;124055;-75
2023/01/06 02:38:20;;;;;;;1.03;0.90;;;13.00;94.80;;;13.41;60.87;99232.09;4969618;28;122327;-77
2023/01/06 02:41:20;;;;;;;1.70;1.20;;;13.00;94.80;;;13.42;60.99;99237.31;4944944;28;114312;-74
2023/01/06 02:44:02;;;;;;;1.90;1.20;;;13.00;94.80;;;13.44;60.68;99234.22;4968713;28;112939;-74
2023/01/06 02:47:20;;;;;;;1.50;1.20;;;13.10;94.80;;;13.44;60.71;99228.66;4956513;28;123963;-73
2023/01/06 02:50:23;;;;;;;3.30;1.20;;;13.00;94.80;;;13.44;60.84;99231.44;4953484;28;123133;-74
2023/01/06 02:53:14;;;;;;;2.37;1.33;;;13.00;94.80;;;13.44;60.60;99232.25;4959466;28;114226;-74
2023/01/06 02:55:47;;;;;;;1.70;1.20;;;13.00;94.80;;;13.46;60.69;99238.31;4966714;28;113630;-73
2023/01/06 02:58:25;;;;;;;1.90;1.20;;;13.00;94.80;;;13.48;60.73;99230.47;4962155;28;123800;-72
2023/01/06 03:01:31;;;;;;;1.40;1.10;;;13.10;94.80;;;13.51;60.70;99222.63;4965708;28;124904;-73
2023/01/06 03:04:05;;;;;;;2.43;1.43;;;13.10;94.80;;;13.53;60.62;99229.50;4961316;28;114708;-72
2023/01/06 03:06:35;;;;;;;2.27;1.53;;;13.10;94.80;;;13.54;60.76;99233.94;4964085;28;113707;-72
2023/01/06 03:09:04;;;;;;;2.90;1.20;;;13.00;94.80;;;13.54;60.67;99214.50;4961836;28;123828;-72
2023/01/06 03:11:32;;;;;;;2.00;1.20;;;13.10;94.80;;;13.52;60.75;99225.09;4994060;28;123712;-72
2023/01/06 03:14:07;;;;;;;1.10;1.00;;;13.10;94.80;;;13.51;60.59;99217.91;4967180;28;114339;-72
2023/01/06 03:16:34;;;;;;;1.40;1.30;;;13.10;94.80;;;13.48;60.72;99219.34;4966149;28;114564;-73
2023/01/06 03:19:02;;;;;;;1.17;1.07;;;13.00;94.80;;;13.47;60.71;99216.91;4966496;28;124273;-72
2023/01/06 03:21:35;;;;;;;1.20;1.10;;;13.00;94.80;;;13.47;60.71;99216.91;5001565;28;123302;-72
2023/01/06 03:24:05;;;;;;;1.13;1.03;;;13.00;94.80;;;13.44;60.75;99221.16;4979613;28;115140;-73
2023/01/06 03:26:32;;;;;;;1.73;1.23;;;13.00;94.80;;;13.44;60.88;99214.78;4971247;28;113366;-72
2023/01/06 03:29:00;;;;;;;1.57;1.30;;;13.00;94.80;;;13.44;60.83;99212.81;4965096;28;123819;-73
2023/01/06 03:32:11;;;;;;;2.00;1.20;;;13.00;94.80;;;13.47;60.81;99205.81;4967737;28;123605;-73
2023/01/06 03:35:07;;;;;;;1.40;1.00;;;13.00;94.80;;;13.48;60.77;99202.69;4965368;28;114652;-73
2023/01/06 03:37:52;;;;;;;1.90;1.13;;;13.00;94.80;;;13.51;60.74;99205.97;4971713;28;114421;-73
2023/01/06 03:40:40;;;;;;;1.50;1.03;;;13.00;94.80;;;13.50;60.70;99212.69;4968516;28;124773;-74
2023/01/06 03:43:31;;;;;;;1.60;1.20;;;13.00;94.80;;;13.48;60.58;99213.00;4967406;28;123672;-73
2023/01/06 03:46:07;;;;;;;1.87;1.20;;;13.00;94.80;;;13.49;60.61;99209.09;4963270;28;114793;-73
2023/01/06 03:49:00;;;;;;;1.20;0.90;;;13.00;94.90;;;13.50;60.53;99216.28;4971498;28;115230;-73
2023/01/06 03:51:36;;;;;;;1.97;1.20;;;13.00;94.80;;;13.50;60.51;99205.16;4970228;28;124127;-73
2023/01/06 03:54:13;;;;;;;1.93;1.60;;;13.00;94.80;;;13.52;60.58;99218.75;4969538;28;123010;-73
2023/01/06 03:56:48;;;;;;;1.10;1.00;;;13.00;94.70;;;13.53;60.38;99223.13;4967763;28;114394;-74
2023/01/06 03:59:22;;;;;;;1.43;1.20;;;13.10;94.80;;;13.52;60.51;99214.00;4970342;28;113956;-73
2023/01/06 04:01:49;;;;;;;1.20;1.10;;;13.00;94.70;;;13.51;60.44;99217.91;4955784;28;123823;-73
2023/01/06 04:04:17;;;;;;;1.10;1.00;;;13.00;94.70;;;13.52;60.45;99227.88;4967155;28;124293;-73
2023/01/06 04:06:44;;;;;;;1.27;1.00;;;13.00;94.70;;;13.52;60.33;99219.56;4959827;28;115742;-73
2023/01/06 04:09:10;;;;;;;2.00;1.13;;;13.00;94.70;;;13.51;60.47;99212.34;4998024;28;115496;-73
2023/01/06 04:14:22;;;;;;;1.10;1.00;;;13.00;94.60;;;13.47;60.44;99211.38;4972699;28;124394;-75
2023/01/06 04:16:48;;;;;;;1.50;1.17;;;13.00;94.60;;;13.45;60.48;99208.09;4970047;28;114557;-73
2023/01/06 04:19:15;;;;;;;2.57;0.90;;;13.10;94.70;;;13.45;60.46;99202.53;4969912;28;113890;-75
2023/01/06 04:21:41;;;;;;;2.03;1.20;;;13.00;94.60;;;13.45;60.44;99196.97;4969352;28;124582;-73
2023/01/06 04:24:08;;;;;;;1.37;0.90;;;13.00;94.60;;;13.43;60.34;99199.25;4968476;28;124050;-73
2023/01/06 04:26:34;;;;;;;3.10;1.20;;;13.00;94.60;;;13.40;60.53;99200.72;4965624;28;114263;-73
2023/01/06 04:29:01;;;;;;;1.30;0.80;;;12.90;94.60;;;13.40;60.33;99199.91;4962833;28;114070;-73
2023/01/06 04:31:28;;;;;;;1.23;1.00;;;12.90;94.60;;;13.38;60.42;99197.47;4969410;28;124015;-73
2023/01/06 04:33:54;;;;;;;1.63;1.13;;;12.90;94.60;;;13.38;60.39;99196.63;4969459;28;123880;-73
2023/01/06 04:36:21;;;;;;;1.10;1.00;;;12.90;94.60;;;13.37;60.42;99195.00;4960588;28;114339;-73
2023/01/06 04:38:47;;;;;;;1.10;1.00;;;12.90;94.60;;;13.36;60.57;99193.38;4961789;28;114112;-73
2023/01/06 04:41:15;;;;;;;1.20;1.10;;;12.90;94.60;;;13.34;60.29;99198.41;4965272;28;124060;-73
2023/01/06 04:43:43;;;;;;;1.80;1.30;;;12.90;94.60;;;13.33;60.50;99199.56;5004964;28;123838;-74
2023/01/06 04:46:09;;;;;;;1.77;1.40;;;12.90;94.60;;;13.30;60.49;99189.94;4975744;28;114535;-77
2023/01/06 04:48:36;;;;;;;2.50;1.10;;;12.80;94.60;;;13.28;60.61;99186.66;4990691;28;112169;-75
2023/01/06 04:51:08;;;;;;;1.97;1.20;;;12.80;94.60;;;13.28;60.40;99197.75;4970390;28;124070;-74
2023/01/06 04:53:37;;;;;;;1.63;1.00;;;12.80;94.60;;;13.28;60.65;99191.38;4969116;28;124398;-74
2023/01/06 04:56:11;;;;;;;2.27;1.30;;;12.90;94.60;;;13.28;60.38;99203.31;4969762;28;114350;-74
2023/01/06 04:58:38;;;;;;;1.07;0.93;;;12.80;94.60;;;13.26;60.51;99192.50;4972155;28;115090;-76
2023/01/06 05:01:09;;;;;;;2.43;1.40;;;12.80;94.60;;;13.26;60.96;99209.16;4969493;28;124234;-73
2023/01/06 05:03:36;;;;;;;1.50;1.17;;;12.80;94.60;;;13.23;60.50;99195.91;4967813;28;123801;-72
2023/01/06 05:06:09;;;;;;;1.80;1.10;;;12.70;94.60;;;13.21;60.54;99195.38;4967848;28;114321;-73
2023/01/06 05:08:39;;;;;;;1.60;1.30;;;12.70;94.60;;;13.18;60.66;99187.72;4967950;28;113669;-75
2023/01/06 05:11:10;;;;;;;2.07;1.40;;;12.70;94.60;;;13.17;60.70;99191.63;4964233;28;124183;-75
2023/01/06 05:13:40;;;;;;;1.10;1.00;;;12.70;94.60;;;13.16;60.77;99187.22;4965429;28;123749;-75
2023/01/06 05:16:34;;;;;;;1.30;1.20;;;12.70;94.60;;;13.17;60.87;99185.28;4968922;28;114167;-75
2023/01/06 05:19:02;;;;;;;1.60;1.20;;;12.70;94.70;;;13.19;60.75;99180.19;4963842;28;114020;-75
2023/01/06 05:21:30;;;;;;;1.20;1.10;;;12.70;94.70;;;13.20;60.59;99187.41;4968618;28;124143;-76
2023/01/06 05:23:57;;;;;;;1.60;1.10;;;12.70;94.70;;;13.20;60.56;99184.63;4967120;28;124460;-75
2023/01/06 05:26:29;;;;;;;1.67;1.27;;;12.70;94.70;;;13.19;60.69;99189.38;4967920;28;114914;-77
2023/01/06 05:28:55;;;;;;;1.37;1.27;;;12.70;94.70;;;13.21;60.63;99195.38;4986772;28;113001;-73
2023/01/06 05:31:23;;;;;;;1.83;1.17;;;13.50;95.00;;;13.20;60.71;99188.22;4969751;28;124188;-73
2023/01/06 05:33:50;;;;;;;2.00;1.30;;;12.70;94.70;;;13.20;60.50;99191.00;4966696;28;123583;-72
2023/01/06 05:36:17;;;;;;;1.87;1.40;;;12.70;94.70;;;13.21;60.71;99180.69;4971516;28;115291;-73
2023/01/06 05:38:50;;;;;;;2.20;1.00;;;12.80;94.70;;;13.21;60.55;99181.53;4967495;28;113947;-72
2023/01/06 05:41:17;;;;;;;3.57;1.20;;;14.10;95.30;;;13.21;60.65;99175.97;4968243;28;124993;-72
2023/01/06 05:43:44;;;;;;;7.80;1.50;;;12.70;94.70;;;13.21;60.63;99177.94;4968812;28;124311;-73
2023/01/06 05:46:11;;;;;;;1.87;1.40;;;12.70;94.70;;;13.20;60.59;99179.91;4967178;28;115334;-72
2023/01/06 05:48:38;;;;;;;1.53;1.40;;;12.70;94.60;;;13.20;60.46;99193.75;4968164;28;114725;-72
2023/01/06 05:51:11;;;;;;;1.30;1.20;;;12.70;94.60;;;13.18;60.44;99176.63;4968462;28;124051;-72
2023/01/06 05:53:41;;;;;;;1.67;1.43;;;12.70;94.60;;;13.15;60.55;99185.59;4959891;28;123966;-73
2023/01/06 05:56:11;;;;;;;1.30;1.20;;;12.70;94.60;;;13.15;60.61;99182.00;4994778;28;114271;-74
2023/01/06 05:58:41;;;;;;;1.60;1.50;;;13.80;95.10;;;13.16;60.26;99187.22;4969979;28;113618;-72
2023/01/06 06:01:23;;;;;;;1.20;1.10;;;12.70;94.60;;;13.15;60.43;99179.22;5002314;28;124002;-72
2023/01/06 06:03:52;;;;;;;3.67;1.33;;;12.70;94.60;;;13.12;60.61;99180.69;4968535;28;123753;-73
2023/01/06 06:06:22;;;;;;;1.20;1.10;;;12.70;94.60;;;13.13;60.64;99171.22;4967889;28;114216;-72
2023/01/06 06:08:48;;;;;;;1.67;1.20;;;12.70;94.60;;;13.12;60.51;99186.22;4966938;28;114226;-72
2023/01/06 06:11:17;;;;;;;2.03;1.50;;;12.60;94.60;;;13.11;60.85;99181.81;4967715;28;124035;-72
2023/01/06 06:13:55;;;;;;;1.50;1.30;;;12.90;94.70;;;13.13;60.21;99195.34;4968004;28;123811;-73
2023/01/06 06:16:25;;;;;;;2.97;1.30;;;12.60;94.60;;;13.12;60.66;99180.69;4954012;28;113550;-73
2023/01/06 06:18:57;;;;;;;2.20;1.37;;;12.60;94.60;;;13.12;60.40;99199.28;4966954;28;114535;-73
2023/01/06 06:21:27;;;;;;;1.70;1.40;;;12.60;94.50;;;13.08;60.57;99182.44;4953193;28;123557;-73
2023/01/06 06:23:55;;;;;;;2.20;1.47;;;12.70;94.60;;;13.08;60.38;99182.44;4967590;28;123706;-72
2023/01/06 06:26:23;;;;;;;2.13;1.40;;;12.60;94.50;;;13.08;60.38;99182.44;4968377;28;114011;-73
2023/01/06 06:28:50;;;;;;;2.47;1.40;;;12.60;94.50;;;13.09;60.49;99191.59;4971584;28;114240;-73
2023/01/06 06:31:23;;;;;;;2.33;1.53;;;12.50;94.50;;;13.08;60.33;99190.75;4967663;28;125519;-73
2023/01/06 06:33:52;;;;;;;1.67;1.50;;;12.60;94.50;;;13.05;60.17;99199.72;4963944;28;123522;-73
2023/01/06 06:36:19;;;;;;;1.43;1.23;;;12.60;94.50;;;13.01;60.66;99196.78;4963991;28;114862;-72
2023/01/06 06:38:49;;;;;;;1.30;1.20;;;12.50;94.50;;;13.00;60.63;99191.53;4958856;28;114333;-72
2023/01/06 06:41:17;;;;;;;1.00;0.90;;;12.50;94.50;;;12.99;60.97;99187.94;4979035;28;124554;-73
2023/01/06 06:43:44;;;;;;;2.60;1.40;;;12.50;94.50;;;12.99;60.52;99195.47;4966872;28;123773;-73
2023/01/06 06:46:11;;;;;;;1.60;1.20;;;12.50;94.60;;;13.01;60.71;99198.75;4965987;28;113606;-72
2023/01/06 06:48:38;;;;;;;1.30;1.10;;;12.70;94.70;;;13.01;60.48;99188.47;4968415;28;113995;-74
2023/01/06 06:51:11;;;;;;;2.70;1.30;;;12.50;94.60;;;13.02;60.46;99184.53;4991994;28;122738;-72
2023/01/06 06:53:41;;;;;;;1.90;1.10;;;12.60;94.60;;;13.02;60.62;99178.19;4974600;28;123908;-74
2023/01/06 06:56:09;;;;;;;1.43;1.17;;;12.50;94.60;;;13.02;60.57;99198.41;4960656;28;114356;-72
2023/01/06 06:58:36;;;;;;;2.03;1.40;;;12.50;94.60;;;13.01;60.38;99199.56;4969584;28;113546;-72
2023/01/06 07:01:09;;;;;;;2.93;1.57;;;12.50;94.60;;;12.95;60.68;99202.78;4963829;28;123772;-72
2023/01/06 07:03:37;;;;;;;1.47;1.30;;;12.40;94.60;;;12.87;60.91;99204.38;4950005;28;123845;-73
2023/01/06 07:06:09;;;;;;;2.40;1.30;;;12.40;94.60;;;12.81;61.14;99192.63;4965439;28;113544;-75
2023/01/06 07:08:36;;;;;;;1.83;1.13;;;12.40;94.70;;;12.78;61.08;99204.31;4957937;28;114194;-74
2023/01/06 07:11:04;;;;;;;1.87;1.30;;;12.30;94.80;;;12.77;61.39;99197.13;4972962;28;123436;-74
2023/01/06 07:13:30;;;;;;;1.53;1.30;;;12.30;95.10;;;12.74;61.33;99189.47;4937187;28;122585;-74
2023/01/06 07:15:58;;;;;;;1.57;1.13;;;12.30;94.80;;;12.74;61.23;99200.56;4951187;28;114313;-73
2023/01/06 07:18:24;;;;;;;3.10;1.40;;;12.30;94.90;;;12.72;61.44;99211.13;4953402;28;114013;-73
2023/01/06 07:20:54;;;;;;;1.93;1.17;;;12.30;94.90;;;12.71;61.43;99220.59;4955384;28;124046;-74
2023/01/06 07:23:22;;;;;;;1.63;1.20;;;12.30;94.90;;;12.70;61.53;99221.72;4958941;28;123569;-73
2023/01/06 07:25:54;;;;;;;1.40;1.20;;;12.30;94.90;;;12.70;61.68;99227.25;4955788;28;115395;-74
2023/01/06 07:28:21;;;;;;;1.70;1.30;;;12.30;95.00;;;12.70;61.74;99226.44;4968432;28;114430;-73
2023/01/06 07:30:48;;;;;;;1.20;1.10;;;12.30;95.00;;;12.73;61.55;99231.34;4966506;28;123862;-73
2023/01/06 07:33:14;;;;;;;1.33;1.23;;;12.30;95.00;;;12.77;61.98;99240.69;4968932;28;123979;-73
2023/01/06 07:35:41;;;;;;;1.90;1.20;;;12.30;95.10;;;12.81;61.85;99239.75;4968823;28;113983;-75
2023/01/06 07:38:08;;;;;;;1.37;1.20;;;12.30;95.10;;;12.87;61.57;99242.38;4970331;28;112901;-73
2023/01/06 07:40:35;;;;;;;1.40;1.20;;;12.50;95.20;;;12.91;61.51;99254.47;4968828;28;123997;-73
2023/01/06 07:43:06;;;;;;;1.57;1.17;;;12.40;95.10;;;12.94;61.75;99253.84;4968831;28;124181;-74
2023/01/06 07:45:33;;;;;;;2.07;1.27;;;12.40;95.10;;;12.97;61.66;99264.28;4953174;28;114399;-74
2023/01/06 07:48:00;;;;;;;1.37;1.27;;;12.50;95.20;;;12.97;61.59;99259.56;4964548;28;114082;-74
2023/01/06 07:50:28;;;;;;;2.67;1.27;;;12.50;95.20;;;12.99;61.74;99260.06;4968893;28;124473;-73
2023/01/06 07:52:57;;;;;;;1.37;1.10;;;12.50;95.20;;;12.99;61.78;99267.59;4970384;28;123930;-73
2023/01/06 07:55:24;;;;;;;1.30;1.20;;;12.50;95.30;;;13.00;62.16;99255.34;4968751;28;114059;-73
2023/01/06 07:57:52;;;;;;;1.20;1.00;;;12.50;95.30;;;13.00;62.29;99271.97;4957272;28;113874;-74
2023/01/06 08:00:19;;;;;;;1.87;1.47;;;12.50;95.50;;;12.97;62.44;99265.09;4966304;28;124337;-74
2023/01/06 08:02:45;;;;;;;1.20;1.10;;;12.50;95.60;;;12.96;62.79;99271.00;4966245;28;124057;-73
2023/01/06 08:05:12;;;;;;;1.60;1.50;;;12.50;95.70;;;12.95;63.05;99272.94;4959025;28;114846;-73
2023/01/06 08:07:39;;;;;;;2.23;1.13;;;12.50;95.80;;;12.96;63.36;99285.69;4968847;28;113824;-74
2023/01/06 08:10:06;;;;;;;1.60;1.13;;;12.60;96.00;;;12.96;63.80;99285.69;4968100;28;124193;-73
2023/01/06 08:12:32;;;;;;;1.50;1.40;;;12.50;96.20;;;12.97;63.97;99286.47;4968573;28;123941;-73
2023/01/06 08:14:59;;;;;;;1.40;1.30;;;12.50;96.30;;;12.94;64.54;99282.38;4967811;28;115211;-73
2023/01/06 08:17:25;;;;;;;1.20;1.10;;;12.50;96.70;;;12.92;64.64;99279.13;4966357;28;115580;-74
2023/01/06 08:19:51;;;;;;;2.10;1.10;;;12.50;96.70;;;12.92;65.00;99289.38;4968953;28;124123;-75
2023/01/06 08:22:18;;;;;;;1.77;1.37;;;12.50;96.90;;;12.91;64.96;99296.09;4968909;28;123910;-74
2023/01/06 08:24:44;;;;;;;1.20;1.10;;;12.90;97.20;;;12.90;65.18;99297.22;4968597;28;114101;-73
2023/01/06 08:27:11;;;;;;;1.77;1.17;;;12.40;97.00;;;12.86;65.69;99288.69;4964938;28;114055;-75
2023/01/06 08:29:37;;;;;;;1.20;1.10;;;12.50;97.20;;;12.79;66.55;99280.03;4957400;28;124087;-74
2023/01/06 08:32:04;;;;;;;1.43;1.13;;;12.30;97.70;;;12.76;66.43;99294.50;4968265;28;123929;-74
2023/01/06 08:34:30;;;;;;;1.60;1.40;;;12.30;97.70;;;12.76;66.50;99300.88;4968941;28;114212;-74
2023/01/06 08:36:57;;;;;;;3.00;1.20;;;12.30;97.80;;;12.74;66.59;99300.38;4969010;28;113974;-74
2023/01/06 08:39:23;;;;;;;1.20;1.10;;;12.30;97.80;;;12.71;66.69;99311.28;4971789;28;124289;-74
2023/01/06 08:41:50;;;;;;;1.33;1.10;;;12.30;97.90;;;12.70;66.47;99299.34;4965264;28;122743;-73
2023/01/06 08:44:17;;;;;;;1.30;1.10;;;12.30;97.90;;;12.66;66.60;99297.53;4969741;28;114338;-73
2023/01/06 08:46:44;;;;;;;1.33;1.10;;;12.20;98.00;;;12.62;66.72;99302.88;4969926;28;113919;-74
2023/01/06 08:49:10;;;;;;;1.00;0.90;;;12.20;98.00;;;12.58;66.77;99296.31;4967983;28;123891;-73
2023/01/06 08:51:37;;;;;;;2.33;1.40;;;12.10;97.90;;;12.58;66.73;99307.41;4969555;28;123777;-73
2023/01/06 08:54:04;;;;;;;2.60;1.60;;;12.20;98.00;;;12.56;66.61;99306.91;4971883;28;114309;-73
2023/01/06 08:56:31;;;;;;;1.43;1.20;;;12.10;98.00;;;12.51;66.85;99307.03;4968847;28;113486;-73
2023/01/06 08:59:00;;;;;;;1.33;1.07;;;12.20;98.10;;;12.45;66.98;99308.28;4959104;28;123914;-73
2023/01/06 09:01:34;;;;;;;1.30;1.20;;;12.00;98.10;;;12.44;67.03;99317.69;4988945;28;123878;-74
2023/01/06 09:04:04;;;;;;;1.20;1.00;;;12.00;98.00;;;12.40;66.92;99316.72;4962384;28;115354;-72
2023/01/06 09:06:30;;;;;;;1.10;0.90;;;12.00;98.00;;;12.37;66.65;99321.72;4969510;28;115142;-74
2023/01/06 09:08:59;;;;;;;1.10;0.90;;;12.00;98.00;;;12.35;66.87;99320.41;4967204;28;124653;-74
2023/01/06 09:11:26;;;;;;;2.87;1.03;;;12.00;98.00;;;12.33;66.95;99329.03;4966533;28;122781;-75
2023/01/06 09:13:52;;;;;;;1.27;1.13;;;11.90;97.90;;;12.33;66.56;99337.34;4967215;28;113556;-74
2023/01/06 09:16:20;;;;;;;1.53;1.10;;;11.90;97.90;;;12.31;66.44;99333.25;4967854;28;114078;-75
2023/01/06 09:18:48;;;;;;;1.23;0.97;;;11.90;97.90;;;12.30;66.16;99332.41;4970025;28;123271;-74
2023/01/06 09:21:17;;;;;;;1.10;1.00;;;11.90;97.90;;;12.28;66.46;99331.94;4968937;28;124311;-73
2023/01/06 09:23:44;;;;;;;1.00;0.90;;;11.90;97.80;;;12.30;66.34;99329.63;4954985;28;113207;-74
2023/01/06 09:26:12;;;;;;;1.10;0.97;;;11.90;97.80;;;12.29;66.26;99328.00;4963991;28;114008;-74
2023/01/06 09:28:39;;;;;;;2.80;1.30;;;12.00;97.70;;;12.29;66.08;99322.47;4990732;28;124336;-74
2023/01/06 09:31:07;;;;;;;1.53;1.27;;;11.90;97.70;;;12.32;66.20;99332.09;4966692;28;124876;-74
2023/01/06 09:33:34;;;;;;;1.10;1.00;;;11.90;97.60;;;12.34;65.85;99336.22;4969015;28;114054;-71
2023/01/06 09:36:01;;;;;;;0.90;0.83;;;11.90;97.60;;;12.36;65.67;99333.97;4969934;28;114023;-73
2023/01/06 09:38:27;;;;;;;1.00;0.90;;;11.90;97.50;;;12.38;65.50;99337.25;4952295;28;123752;-74
2023/01/06 09:41:16;;;;;;;1.40;0.90;;;11.90;97.40;;;12.39;65.30;99338.06;4969227;28;122955;-73
2023/01/06 09:43:49;;;;;;;1.23;1.00;;;12.00;97.40;;;12.40;64.95;99336.91;5002174;28;115618;-74
2023/01/06 09:46:20;;;;;;;2.13;1.00;;;12.00;97.30;;;12.44;64.91;99343.50;4961764;28;114174;-74
2023/01/06 09:49:03;;;;;;;1.07;0.97;;;12.00;97.30;;;12.49;64.89;99348.91;4942065;28;124594;-74
2023/01/06 09:51:31;;;;;;;1.00;0.90;;;12.10;97.20;;;12.54;64.73;99339.66;4953088;28;124314;-72
2023/01/06 09:54:15;;;;;;;0.80;0.70;;;12.10;97.10;;;12.60;64.55;99349.50;4962680;28;115221;-74
2023/01/06 09:56:50;;;;;;;1.10;0.83;;;12.10;97.10;;;12.70;65.45;99346.47;4998082;28;115022;-74
2023/01/06 09:59:47;;;;;;;2.60;2.40;;;11.00;96.90;;;12.90;65.79;99347.16;4968329;28;124393;-73
2023/01/06 10:02:38;;;;;;;1.07;0.97;;;12.30;97.90;;;13.13;65.09;99346.00;4966325;28;123916;-75
2023/01/06 10:05:22;;;;;;;1.10;1.00;;;12.50;97.90;;;13.29;64.75;99337.31;4968956;28;113371;-74
2023/01/06 10:08:36;;;;;;;4.50;0.90;;;12.60;97.70;;;13.45;64.48;99335.78;4965311;28;113827;-72
2023/01/06 10:11:08;;;;;;;1.37;1.10;;;12.80;97.70;;;13.56;64.15;99333.53;4966917;28;123938;-74
2023/01/06 10:14:15;;;;;;;1.20;1.10;;;12.90;97.50;;;13.61;63.27;99323.13;4967611;28;123988;-74
2023/01/06 10:17:14;;;;;;;1.77;1.20;;;13.00;97.10;;;13.63;62.85;99315.28;4945157;28;113392;-73
2023/01/06 10:20:18;;;;;;;1.30;1.20;;;13.00;96.70;;;13.64;62.54;99310.56;4969401;28;112919;-71
2023/01/06 10:23:25;;;;;;;1.93;1.10;;;13.10;96.50;;;13.66;62.34;99309.09;4967094;28;122832;-74
2023/01/06 10:26:31;;;;;;;1.20;1.00;;;13.10;96.30;;;13.73;62.18;99297.53;4921391;28;124257;-76
2023/01/06 10:29:13;;;;;;;1.70;1.30;;;13.20;96.30;;;13.80;61.74;99285.94;4969500;28;113962;-76
2023/01/06 10:31:44;;;;;;;1.67;1.20;;;13.20;96.20;;;13.84;61.56;99298.06;4949783;28;113440;-73
2023/01/06 10:34:26;;;;;;;1.57;1.00;;;13.30;96.00;;;13.85;61.41;99286.59;4969631;28;125490;-77
2023/01/06 10:37:25;;;;;;;1.10;1.00;;;13.30;95.90;;;13.88;61.26;99276.81;4962544;28;123129;-75
2023/01/06 10:40:20;;;;;;;1.10;0.97;;;13.30;95.80;;;13.88;60.82;99274.84;4967800;28;114965;-73
2023/01/06 10:42:55;;;;;;;1.37;1.07;;;13.30;95.60;;;13.93;60.59;99279.44;4968518;28;114002;-73